AAL544 KMCO-MYNN
Flight info
| Callsign | AAL544 |
|---|---|
| Flight time | N/A |
| Altitude | 31000 |
| Route | DDANY3 JIPOD DCT JUNIP DCT ZFP BR63V ZQA |
| Aircraft | A21N/M-SDE2E3FGHIRWXY/LB1 |
Departure
| Time | 2026-05-04 23:23 |
|---|---|
| Airport | Orlando International Airport (KMCO) |
Arrival
| Time | N/A |
|---|---|
| Airport | Lynden Pindling International Airport (MYNN) |
| Time | Latitude | Longitude | Altitude | Speed | Heading |
|---|---|---|---|---|---|
| 2026-05-04 22:48 | 28.43478 | -81.31287 | 100 ft | 0 kts | 324° |
| 2026-05-04 23:09 | 28.43475 | -81.31284 | 100 ft | 3 kts | 324° |
| 2026-05-04 23:09 | 28.43458 | -81.31270 | 100 ft | 4 kts | 329° |
| 2026-05-04 23:09 | 28.43436 | -81.31265 | 99 ft | 2 kts | 9° |
| 2026-05-04 23:09 | 28.43416 | -81.31269 | 100 ft | 1 kts | 9° |
| 2026-05-04 23:12 | 28.43418 | -81.31268 | 100 ft | 1 kts | 16° |
| 2026-05-04 23:13 | 28.43429 | -81.31256 | 99 ft | 3 kts | 47° |
| 2026-05-04 23:13 | 28.43448 | -81.31230 | 99 ft | 5 kts | 59° |
| 2026-05-04 23:13 | 28.43473 | -81.31185 | 100 ft | 8 kts | 57° |
| 2026-05-04 23:13 | 28.43527 | -81.31146 | 103 ft | 11 kts | 18° |
| 2026-05-04 23:14 | 28.43608 | -81.31137 | 100 ft | 13 kts | 340° |
| 2026-05-04 23:14 | 28.43690 | -81.31199 | 101 ft | 15 kts | 316° |
| 2026-05-04 23:14 | 28.43685 | -81.31322 | 102 ft | 17 kts | 256° |
| 2026-05-04 23:14 | 28.43700 | -81.31465 | 103 ft | 19 kts | 280° |
| 2026-05-04 23:15 | 28.43680 | -81.31614 | 103 ft | 21 kts | 219° |
| 2026-05-04 23:15 | 28.43536 | -81.31656 | 101 ft | 22 kts | 193° |
| 2026-05-04 23:15 | 28.43384 | -81.31695 | 102 ft | 23 kts | 192° |
| 2026-05-04 23:15 | 28.43248 | -81.31786 | 103 ft | 25 kts | 236° |
| 2026-05-04 23:16 | 28.43091 | -81.31840 | 103 ft | 26 kts | 179° |
| 2026-05-04 23:16 | 28.42905 | -81.31837 | 103 ft | 27 kts | 179° |
| 2026-05-04 23:16 | 28.42707 | -81.31833 | 106 ft | 30 kts | 180° |
| 2026-05-04 23:16 | 28.42496 | -81.31833 | 106 ft | 31 kts | 180° |
| 2026-05-04 23:17 | 28.42367 | -81.31816 | 105 ft | 15 kts | 141° |
| 2026-05-04 23:17 | 28.42347 | -81.31699 | 104 ft | 17 kts | 89° |
| 2026-05-04 23:17 | 28.42349 | -81.31533 | 102 ft | 22 kts | 89° |
| 2026-05-04 23:17 | 28.42351 | -81.31354 | 100 ft | 23 kts | 89° |
| 2026-05-04 23:18 | 28.42339 | -81.31166 | 100 ft | 25 kts | 99° |
| 2026-05-04 23:18 | 28.42315 | -81.30969 | 100 ft | 26 kts | 88° |
| 2026-05-04 23:18 | 28.42329 | -81.30761 | 101 ft | 28 kts | 85° |
| 2026-05-04 23:18 | 28.42346 | -81.30538 | 101 ft | 29 kts | 85° |
| 2026-05-04 23:19 | 28.42358 | -81.30304 | 103 ft | 30 kts | 89° |
| 2026-05-04 23:19 | 28.42361 | -81.30059 | 100 ft | 32 kts | 89° |
| 2026-05-04 23:19 | 28.42363 | -81.29889 | 100 ft | 0 kts | 89° |
| 2026-05-04 23:19 | 28.42363 | -81.29855 | 100 ft | 8 kts | 89° |
| 2026-05-04 23:20 | 28.42322 | -81.29794 | 100 ft | 13 kts | 170° |
| 2026-05-04 23:20 | 28.42225 | -81.29795 | 101 ft | 15 kts | 179° |
| 2026-05-04 23:20 | 28.42111 | -81.29792 | 101 ft | 18 kts | 178° |
| 2026-05-04 23:20 | 28.41953 | -81.29790 | 101 ft | 25 kts | 180° |
| 2026-05-04 23:21 | 28.41777 | -81.29790 | 101 ft | 26 kts | 179° |
| 2026-05-04 23:21 | 28.41570 | -81.29787 | 101 ft | 37 kts | 179° |
| 2026-05-04 23:21 | 28.41307 | -81.29783 | 100 ft | 38 kts | 179° |
| 2026-05-04 23:21 | 28.41037 | -81.29777 | 101 ft | 40 kts | 180° |
| 2026-05-04 23:22 | 28.40933 | -81.29731 | 101 ft | 20 kts | 110° |
| 2026-05-04 23:22 | 28.40991 | -81.29560 | 102 ft | 27 kts | 7° |
| 2026-05-04 23:22 | 28.41269 | -81.29561 | 101 ft | 71 kts | 359° |
| 2026-05-04 23:22 | 28.41999 | -81.29570 | 102 ft | 136 kts | 359° |
| 2026-05-04 23:23 | 28.43107 | -81.29596 | 263 ft | 170 kts | 4° |
| 2026-05-04 23:23 | 28.44299 | -81.29605 | 800 ft | 176 kts | 7° |
| 2026-05-04 23:23 | 28.45396 | -81.29155 | 1493 ft | 172 kts | 42° |
| 2026-05-04 23:23 | 28.46212 | -81.28079 | 1940 ft | 189 kts | 54° |
| 2026-05-04 23:24 | 28.47033 | -81.26810 | 2497 ft | 213 kts | 54° |
| 2026-05-04 23:24 | 28.47979 | -81.25364 | 2988 ft | 240 kts | 54° |
| 2026-05-04 23:24 | 28.49005 | -81.23810 | 3726 ft | 253 kts | 54° |
| 2026-05-04 23:24 | 28.50046 | -81.22135 | 4558 ft | 263 kts | 61° |
| 2026-05-04 23:25 | 28.50509 | -81.20843 | 5098 ft | 269 kts | 75° |
| 2026-05-04 23:25 | 28.50905 | -81.18739 | 5921 ft | 277 kts | 79° |
| 2026-05-04 23:25 | 28.51111 | -81.16529 | 6679 ft | 286 kts | 95° |
| 2026-05-04 23:25 | 28.50729 | -81.14284 | 7470 ft | 292 kts | 106° |
| 2026-05-04 23:26 | 28.50181 | -81.12047 | 8373 ft | 296 kts | 107° |
| 2026-05-04 23:26 | 28.49627 | -81.09777 | 9258 ft | 301 kts | 106° |
| 2026-05-04 23:26 | 28.48876 | -81.06680 | 10286 ft | 314 kts | 110° |
| 2026-05-04 23:26 | 28.48290 | -81.05120 | 10553 ft | 326 kts | 120° |
| 2026-05-04 23:27 | 28.46834 | -81.03076 | 10882 ft | 343 kts | 142° |
| 2026-05-04 23:27 | 28.44896 | -81.01367 | 11231 ft | 362 kts | 147° |
| 2026-05-04 23:27 | 28.42872 | -80.99656 | 11885 ft | 371 kts | 146° |
| 2026-05-04 23:27 | 28.40815 | -80.97860 | 12695 ft | 375 kts | 145° |
| 2026-05-04 23:28 | 28.38751 | -80.96016 | 13516 ft | 379 kts | 145° |
| 2026-05-04 23:28 | 28.36675 | -80.94146 | 14268 ft | 383 kts | 144° |
| 2026-05-04 23:28 | 28.34576 | -80.92238 | 14938 ft | 389 kts | 145° |
| 2026-05-04 23:28 | 28.32485 | -80.90335 | 15598 ft | 394 kts | 145° |
| 2026-05-04 23:29 | 28.30336 | -80.88379 | 16247 ft | 399 kts | 145° |
| 2026-05-04 23:29 | 28.28310 | -80.86162 | 16845 ft | 411 kts | 133° |
| 2026-05-04 23:29 | 28.26826 | -80.83353 | 17435 ft | 423 kts | 117° |
| 2026-05-04 23:29 | 28.25701 | -80.80239 | 18031 ft | 430 kts | 114° |
| 2026-05-04 23:30 | 28.24606 | -80.77060 | 18569 ft | 435 kts | 114° |
| 2026-05-04 23:30 | 28.23501 | -80.73898 | 19091 ft | 439 kts | 115° |
| 2026-05-04 23:30 | 28.22352 | -80.70677 | 19632 ft | 443 kts | 115° |
| 2026-05-04 23:30 | 28.21189 | -80.67421 | 20172 ft | 447 kts | 115° |
| 2026-05-04 23:31 | 28.20081 | -80.64104 | 20716 ft | 452 kts | 114° |
| 2026-05-04 23:31 | 28.18972 | -80.60751 | 21263 ft | 456 kts | 114° |
| 2026-05-04 23:31 | 28.17858 | -80.57375 | 21829 ft | 460 kts | 114° |
| 2026-05-04 23:31 | 28.16734 | -80.53966 | 22396 ft | 464 kts | 114° |
| 2026-05-04 23:32 | 28.15595 | -80.50524 | 22953 ft | 468 kts | 114° |
| 2026-05-04 23:32 | 28.14448 | -80.47062 | 23488 ft | 473 kts | 114° |
| 2026-05-04 23:32 | 28.13314 | -80.43635 | 24137 ft | 464 kts | 114° |
| 2026-05-04 23:32 | 28.12187 | -80.40233 | 24702 ft | 462 kts | 115° |
| 2026-05-04 23:33 | 28.11016 | -80.36806 | 24964 ft | 470 kts | 117° |
| 2026-05-04 23:33 | 28.09447 | -80.33548 | 25050 ft | 475 kts | 130° |
| 2026-05-04 23:33 | 28.07274 | -80.30715 | 25079 ft | 479 kts | 143° |
| 2026-05-04 23:33 | 28.06430 | -80.29874 | 25082 ft | 480 kts | 147° |